sensor_id;sensor_type;location;lat;lon;timestamp;pressure;altitude;pressure_sealevel;temperature
69704;BMP280;56967;43.538;-5.646;2023-03-03T00:01:22;101987.22;;;11.20
69704;BMP280;56967;43.538;-5.646;2023-03-03T00:03:51;101984.22;;;11.38
69704;BMP280;56967;43.538;-5.646;2023-03-03T00:06:17;101995.03;;;11.14
69704;BMP280;56967;43.538;-5.646;2023-03-03T00:08:43;101985.50;;;11.13
69704;BMP280;56967;43.538;-5.646;2023-03-03T00:11:09;101981.53;;;11.17
69704;BMP280;56967;43.538;-5.646;2023-03-03T00:13:45;101986.03;;;11.23
69704;BMP280;56967;43.538;-5.646;2023-03-03T00:16:27;101983.66;;;11.28
69704;BMP280;56967;43.538;-5.646;2023-03-03T00:18:54;101988.00;;;11.35
69704;BMP280;56967;43.538;-5.646;2023-03-03T00:21:28;101994.75;;;11.38
69704;BMP280;56967;43.538;-5.646;2023-03-03T00:24:02;101995.03;;;11.28
69704;BMP280;56967;43.538;-5.646;2023-03-03T00:26:39;102006.25;;;11.37
69704;BMP280;56967;43.538;-5.646;2023-03-03T00:31:49;102004.53;;;11.44
69704;BMP280;56967;43.538;-5.646;2023-03-03T00:36:45;102002.78;;;11.51
69704;BMP280;56967;43.538;-5.646;2023-03-03T00:39:30;102001.97;;;11.50
69704;BMP280;56967;43.538;-5.646;2023-03-03T00:41:58;101994.09;;;11.36
69704;BMP280;56967;43.538;-5.646;2023-03-03T00:46:56;101985.09;;;11.45
69704;BMP280;56967;43.538;-5.646;2023-03-03T00:49:25;101993.56;;;11.40
69704;BMP280;56967;43.538;-5.646;2023-03-03T00:51:51;101988.19;;;11.48
69704;BMP280;56967;43.538;-5.646;2023-03-03T00:54:17;101986.69;;;11.25
69704;BMP280;56967;43.538;-5.646;2023-03-03T00:56:43;101983.84;;;11.26
69704;BMP280;56967;43.538;-5.646;2023-03-03T00:59:09;101972.50;;;11.40
69704;BMP280;56967;43.538;-5.646;2023-03-03T01:01:34;101984.09;;;11.46
69704;BMP280;56967;43.538;-5.646;2023-03-03T01:04:00;101980.69;;;11.67
69704;BMP280;56967;43.538;-5.646;2023-03-03T01:06:25;101987.13;;;11.64
69704;BMP280;56967;43.538;-5.646;2023-03-03T01:08:51;101986.88;;;11.59
69704;BMP280;56967;43.538;-5.646;2023-03-03T01:11:21;101982.16;;;11.54
69704;BMP280;56967;43.538;-5.646;2023-03-03T01:13:48;101986.25;;;11.57
69704;BMP280;56967;43.538;-5.646;2023-03-03T01:16:14;101988.25;;;11.55
69704;BMP280;56967;43.538;-5.646;2023-03-03T01:18:40;101983.34;;;11.52
69704;BMP280;56967;43.538;-5.646;2023-03-03T01:21:07;101988.78;;;11.50
69704;BMP280;56967;43.538;-5.646;2023-03-03T01:23:33;101989.69;;;11.57
69704;BMP280;56967;43.538;-5.646;2023-03-03T01:25:59;101983.03;;;11.40
69704;BMP280;56967;43.538;-5.646;2023-03-03T01:28:24;101988.38;;;11.47
69704;BMP280;56967;43.538;-5.646;2023-03-03T01:30:50;101987.38;;;11.48
69704;BMP280;56967;43.538;-5.646;2023-03-03T01:33:16;101986.97;;;11.51
69704;BMP280;56967;43.538;-5.646;2023-03-03T01:35:45;101984.44;;;11.57
69704;BMP280;56967;43.538;-5.646;2023-03-03T01:38:12;101985.13;;;11.66
69704;BMP280;56967;43.538;-5.646;2023-03-03T01:40:39;101984.63;;;11.77
69704;BMP280;56967;43.538;-5.646;2023-03-03T01:43:05;101994.47;;;11.69
69704;BMP280;56967;43.538;-5.646;2023-03-03T01:45:42;101991.72;;;11.77
69704;BMP280;56967;43.538;-5.646;2023-03-03T01:48:33;101994.69;;;11.88
69704;BMP280;56967;43.538;-5.646;2023-03-03T01:51:01;102000.41;;;11.92
69704;BMP280;56967;43.538;-5.646;2023-03-03T01:53:47;101995.13;;;11.92
69704;BMP280;56967;43.538;-5.646;2023-03-03T01:56:14;101995.66;;;11.87
69704;BMP280;56967;43.538;-5.646;2023-03-03T01:58:49;101994.84;;;11.87
69704;BMP280;56967;43.538;-5.646;2023-03-03T02:01:20;101985.47;;;11.99
69704;BMP280;56967;43.538;-5.646;2023-03-03T02:03:47;101991.47;;;11.93
69704;BMP280;56967;43.538;-5.646;2023-03-03T02:06:15;101993.94;;;11.94
69704;BMP280;56967;43.538;-5.646;2023-03-03T02:08:53;101994.03;;;12.07
69704;BMP280;56967;43.538;-5.646;2023-03-03T02:11:20;101997.28;;;12.09
69704;BMP280;56967;43.538;-5.646;2023-03-03T02:13:46;101999.66;;;11.98
69704;BMP280;56967;43.538;-5.646;2023-03-03T02:16:12;101999.25;;;12.01
69704;BMP280;56967;43.538;-5.646;2023-03-03T02:18:38;101993.09;;;11.94
69704;BMP280;56967;43.538;-5.646;2023-03-03T02:21:15;101996.22;;;12.04
69704;BMP280;56967;43.538;-5.646;2023-03-03T02:26:30;101999.25;;;11.80
69704;BMP280;56967;43.538;-5.646;2023-03-03T02:28:56;102000.44;;;11.77
69704;BMP280;56967;43.538;-5.646;2023-03-03T02:31:25;101996.63;;;11.80
69704;BMP280;56967;43.538;-5.646;2023-03-03T02:33:52;102006.34;;;11.79
69704;BMP280;56967;43.538;-5.646;2023-03-03T02:36:21;101999.00;;;11.96
69704;BMP280;56967;43.538;-5.646;2023-03-03T02:39:07;101996.56;;;11.94
69704;BMP280;56967;43.538;-5.646;2023-03-03T02:44:28;101995.72;;;11.73
69704;BMP280;56967;43.538;-5.646;2023-03-03T02:46:55;102001.63;;;11.75
69704;BMP280;56967;43.538;-5.646;2023-03-03T02:49:32;101997.59;;;11.79
69704;BMP280;56967;43.538;-5.646;2023-03-03T02:51:59;102006.09;;;11.74
69704;BMP280;56967;43.538;-5.646;2023-03-03T02:54:26;101998.34;;;11.73
69704;BMP280;56967;43.538;-5.646;2023-03-03T02:56:52;101993.28;;;11.71
69704;BMP280;56967;43.538;-5.646;2023-03-03T02:59:17;101997.00;;;11.77
69704;BMP280;56967;43.538;-5.646;2023-03-03T03:01:43;101996.50;;;11.67
69704;BMP280;56967;43.538;-5.646;2023-03-03T03:06:36;101983.34;;;11.52
69704;BMP280;56967;43.538;-5.646;2023-03-03T03:09:03;101976.97;;;11.61
69704;BMP280;56967;43.538;-5.646;2023-03-03T03:11:29;101976.22;;;11.67
69704;BMP280;56967;43.538;-5.646;2023-03-03T03:13:55;101967.31;;;11.68
69704;BMP280;56967;43.538;-5.646;2023-03-03T03:16:21;101965.47;;;11.62
69704;BMP280;56967;43.538;-5.646;2023-03-03T03:18:46;101962.06;;;11.68
69704;BMP280;56967;43.538;-5.646;2023-03-03T03:21:12;101970.59;;;11.34
69704;BMP280;56967;43.538;-5.646;2023-03-03T03:23:38;101964.16;;;11.58
69704;BMP280;56967;43.538;-5.646;2023-03-03T03:26:04;101968.88;;;11.62
69704;BMP280;56967;43.538;-5.646;2023-03-03T03:28:30;101958.03;;;11.72
69704;BMP280;56967;43.538;-5.646;2023-03-03T03:30:56;101956.97;;;11.88
69704;BMP280;56967;43.538;-5.646;2023-03-03T03:33:22;101955.53;;;11.85
69704;BMP280;56967;43.538;-5.646;2023-03-03T03:35:48;101961.25;;;11.89
69704;BMP280;56967;43.538;-5.646;2023-03-03T03:38:14;101959.44;;;11.89
69704;BMP280;56967;43.538;-5.646;2023-03-03T03:40:40;101957.63;;;11.90
69704;BMP280;56967;43.538;-5.646;2023-03-03T03:43:06;101959.13;;;11.99
69704;BMP280;56967;43.538;-5.646;2023-03-03T03:45:32;101962.00;;;11.83
69704;BMP280;56967;43.538;-5.646;2023-03-03T03:47:58;101949.25;;;11.86
69704;BMP280;56967;43.538;-5.646;2023-03-03T03:50:23;101959.91;;;11.78
69704;BMP280;56967;43.538;-5.646;2023-03-03T03:52:49;101957.28;;;11.78
69704;BMP280;56967;43.538;-5.646;2023-03-03T03:55:15;101942.81;;;11.89
69704;BMP280;56967;43.538;-5.646;2023-03-03T03:57:41;101951.41;;;11.97
69704;BMP280;56967;43.538;-5.646;2023-03-03T04:00:08;101950.06;;;12.08
69704;BMP280;56967;43.538;-5.646;2023-03-03T04:02:34;101946.72;;;11.99
69704;BMP280;56967;43.538;-5.646;2023-03-03T04:05:00;101949.34;;;11.99
69704;BMP280;56967;43.538;-5.646;2023-03-03T04:07:25;101953.38;;;11.95
69704;BMP280;56967;43.538;-5.646;2023-03-03T04:09:51;101946.56;;;11.80
69704;BMP280;56967;43.538;-5.646;2023-03-03T04:12:16;101948.66;;;11.84
69704;BMP280;56967;43.538;-5.646;2023-03-03T04:14:42;101939.94;;;11.84
69704;BMP280;56967;43.538;-5.646;2023-03-03T04:17:08;101939.72;;;11.85
69704;BMP280;56967;43.538;-5.646;2023-03-03T04:19:35;101950.63;;;11.82
69704;BMP280;56967;43.538;-5.646;2023-03-03T04:22:00;101944.25;;;11.91
69704;BMP280;56967;43.538;-5.646;2023-03-03T04:24:26;101948.91;;;11.89
69704;BMP280;56967;43.538;-5.646;2023-03-03T04:26:51;101944.44;;;11.90
69704;BMP280;56967;43.538;-5.646;2023-03-03T04:29:17;101940.47;;;11.79
69704;BMP280;56967;43.538;-5.646;2023-03-03T04:31:43;101943.72;;;11.81
69704;BMP280;56967;43.538;-5.646;2023-03-03T04:34:08;101946.25;;;11.68
69704;BMP280;56967;43.538;-5.646;2023-03-03T04:36:34;101944.19;;;11.49
69704;BMP280;56967;43.538;-5.646;2023-03-03T04:38:59;101940.66;;;11.56
69704;BMP280;56967;43.538;-5.646;2023-03-03T04:41:25;101941.63;;;11.70
69704;BMP280;56967;43.538;-5.646;2023-03-03T04:43:50;101939.41;;;11.74
69704;BMP280;56967;43.538;-5.646;2023-03-03T04:46:16;101938.41;;;11.53
69704;BMP280;56967;43.538;-5.646;2023-03-03T04:48:41;101939.75;;;11.49
69704;BMP280;56967;43.538;-5.646;2023-03-03T04:51:07;101942.06;;;11.52
69704;BMP280;56967;43.538;-5.646;2023-03-03T04:53:32;101954.03;;;11.55
69704;BMP280;56967;43.538;-5.646;2023-03-03T04:55:58;101958.66;;;11.53
69704;BMP280;56967;43.538;-5.646;2023-03-03T04:58:23;101959.72;;;11.58
69704;BMP280;56967;43.538;-5.646;2023-03-03T05:00:53;101948.44;;;11.64
69704;BMP280;56967;43.538;-5.646;2023-03-03T05:03:20;101953.53;;;11.66
69704;BMP280;56967;43.538;-5.646;2023-03-03T05:05:46;101946.25;;;11.68
69704;BMP280;56967;43.538;-5.646;2023-03-03T05:08:12;101954.16;;;11.68
69704;BMP280;56967;43.538;-5.646;2023-03-03T05:10:38;101950.13;;;11.72
69704;BMP280;56967;43.538;-5.646;2023-03-03T05:13:05;101949.38;;;11.57
69704;BMP280;56967;43.538;-5.646;2023-03-03T05:15:31;101959.28;;;11.55
69704;BMP280;56967;43.538;-5.646;2023-03-03T05:17:56;101958.41;;;11.33
69704;BMP280;56967;43.538;-5.646;2023-03-03T05:20:23;101955.09;;;11.39
69704;BMP280;56967;43.538;-5.646;2023-03-03T05:22:49;101951.91;;;11.29
69704;BMP280;56967;43.538;-5.646;2023-03-03T05:25:15;101951.72;;;11.31
69704;BMP280;56967;43.538;-5.646;2023-03-03T05:27:41;101949.09;;;11.31
69704;BMP280;56967;43.538;-5.646;2023-03-03T05:30:08;101949.03;;;10.95
69704;BMP280;56967;43.538;-5.646;2023-03-03T05:32:34;101941.97;;;10.81
69704;BMP280;56967;43.538;-5.646;2023-03-03T05:35:00;101943.72;;;10.88
69704;BMP280;56967;43.538;-5.646;2023-03-03T05:37:26;101941.38;;;10.93
69704;BMP280;56967;43.538;-5.646;2023-03-03T05:39:51;101947.53;;;10.86
69704;BMP280;56967;43.538;-5.646;2023-03-03T05:42:17;101947.47;;;10.79
69704;BMP280;56967;43.538;-5.646;2023-03-03T05:44:42;101951.97;;;10.85
69704;BMP280;56967;43.538;-5.646;2023-03-03T05:47:09;101947.63;;;10.78
69704;BMP280;56967;43.538;-5.646;2023-03-03T05:49:35;101951.59;;;10.74
69704;BMP280;56967;43.538;-5.646;2023-03-03T05:52:00;101945.78;;;10.64
69704;BMP280;56967;43.538;-5.646;2023-03-03T05:54:26;101949.88;;;10.66
69704;BMP280;56967;43.538;-5.646;2023-03-03T05:56:52;101953.66;;;10.64
69704;BMP280;56967;43.538;-5.646;2023-03-03T05:59:17;101952.50;;;10.81
69704;BMP280;56967;43.538;-5.646;2023-03-03T06:01:44;101958.88;;;10.86
69704;BMP280;56967;43.538;-5.646;2023-03-03T06:04:09;101955.56;;;10.55
69704;BMP280;56967;43.538;-5.646;2023-03-03T06:06:35;101955.22;;;10.73
69704;BMP280;56967;43.538;-5.646;2023-03-03T06:09:02;101960.56;;;10.65
69704;BMP280;56967;43.538;-5.646;2023-03-03T06:11:27;101963.03;;;10.66
69704;BMP280;56967;43.538;-5.646;2023-03-03T06:13:53;101961.84;;;10.83
69704;BMP280;56967;43.538;-5.646;2023-03-03T06:16:19;101963.50;;;10.84
69704;BMP280;56967;43.538;-5.646;2023-03-03T06:18:44;101972.28;;;10.91
69704;BMP280;56967;43.538;-5.646;2023-03-03T06:21:10;101968.66;;;10.92
69704;BMP280;56967;43.538;-5.646;2023-03-03T06:23:36;101967.13;;;10.83
69704;BMP280;56967;43.538;-5.646;2023-03-03T06:26:01;101968.47;;;10.94
69704;BMP280;56967;43.538;-5.646;2023-03-03T06:28:27;101966.34;;;11.04
69704;BMP280;56967;43.538;-5.646;2023-03-03T06:30:53;101978.63;;;10.97
69704;BMP280;56967;43.538;-5.646;2023-03-03T06:33:19;101980.59;;;10.80
69704;BMP280;56967;43.538;-5.646;2023-03-03T06:35:51;101987.59;;;10.73
69704;BMP280;56967;43.538;-5.646;2023-03-03T06:38:17;101986.78;;;10.73
69704;BMP280;56967;43.538;-5.646;2023-03-03T06:40:44;101984.06;;;10.66
69704;BMP280;56967;43.538;-5.646;2023-03-03T06:43:11;101989.41;;;10.73
69704;BMP280;56967;43.538;-5.646;2023-03-03T06:45:36;101988.88;;;10.77
69704;BMP280;56967;43.538;-5.646;2023-03-03T06:48:02;101993.59;;;10.82
69704;BMP280;56967;43.538;-5.646;2023-03-03T06:50:28;101997.22;;;10.66
69704;BMP280;56967;43.538;-5.646;2023-03-03T06:53:03;102002.88;;;10.55
69704;BMP280;56967;43.538;-5.646;2023-03-03T06:55:29;101998.66;;;10.69
69704;BMP280;56967;43.538;-5.646;2023-03-03T06:57:55;101994.06;;;10.71
69704;BMP280;56967;43.538;-5.646;2023-03-03T07:00:25;102007.25;;;10.63
69704;BMP280;56967;43.538;-5.646;2023-03-03T07:03:00;101997.13;;;10.74
69704;BMP280;56967;43.538;-5.646;2023-03-03T07:05:28;102005.34;;;10.71
69704;BMP280;56967;43.538;-5.646;2023-03-03T07:07:57;102001.22;;;10.77
69704;BMP280;56967;43.538;-5.646;2023-03-03T07:12:48;102006.81;;;10.74
69704;BMP280;56967;43.538;-5.646;2023-03-03T07:15:21;102012.16;;;10.80
69704;BMP280;56967;43.538;-5.646;2023-03-03T07:17:49;102015.44;;;10.68
69704;BMP280;56967;43.538;-5.646;2023-03-03T07:20:26;102016.50;;;10.59
69704;BMP280;56967;43.538;-5.646;2023-03-03T07:22:52;102018.97;;;10.75
69704;BMP280;56967;43.538;-5.646;2023-03-03T07:25:29;102024.06;;;10.91
69704;BMP280;56967;43.538;-5.646;2023-03-03T07:28:10;102031.94;;;10.76
69704;BMP280;56967;43.538;-5.646;2023-03-03T07:30:36;102035.13;;;10.86
69704;BMP280;56967;43.538;-5.646;2023-03-03T07:33:02;102034.16;;;11.02
69704;BMP280;56967;43.538;-5.646;2023-03-03T07:35:37;102035.44;;;11.06
69704;BMP280;56967;43.538;-5.646;2023-03-03T07:38:28;102038.47;;;10.95
69704;BMP280;56967;43.538;-5.646;2023-03-03T07:40:56;102040.84;;;10.90
69704;BMP280;56967;43.538;-5.646;2023-03-03T07:46:13;102045.50;;;11.17
69704;BMP280;56967;43.538;-5.646;2023-03-03T07:48:41;102052.59;;;11.17
69704;BMP280;56967;43.538;-5.646;2023-03-03T07:51:22;102058.00;;;11.44
69704;BMP280;56967;43.538;-5.646;2023-03-03T07:53:52;102059.47;;;11.47
69704;BMP280;56967;43.538;-5.646;2023-03-03T07:56:33;102055.84;;;11.48
69704;BMP280;56967;43.538;-5.646;2023-03-03T07:59:02;102064.53;;;11.48
69704;BMP280;56967;43.538;-5.646;2023-03-03T08:01:40;102064.59;;;11.70
69704;BMP280;56967;43.538;-5.646;2023-03-03T08:06:59;102072.63;;;11.61
69704;BMP280;56967;43.538;-5.646;2023-03-03T08:12:19;102077.88;;;11.97
69704;BMP280;56967;43.538;-5.646;2023-03-03T08:14:50;102075.53;;;12.09
69704;BMP280;56967;43.538;-5.646;2023-03-03T08:17:22;102085.63;;;11.99
69704;BMP280;56967;43.538;-5.646;2023-03-03T08:19:49;102082.56;;;12.02
69704;BMP280;56967;43.538;-5.646;2023-03-03T08:22:32;102089.53;;;12.09
69704;BMP280;56967;43.538;-5.646;2023-03-03T08:24:58;102098.91;;;12.12
69704;BMP280;56967;43.538;-5.646;2023-03-03T08:27:23;102095.59;;;12.24
69704;BMP280;56967;43.538;-5.646;2023-03-03T08:29:49;102098.34;;;12.38
69704;BMP280;56967;43.538;-5.646;2023-03-03T08:32:14;102101.91;;;12.51
69704;BMP280;56967;43.538;-5.646;2023-03-03T08:34:41;102116.31;;;12.55
69704;BMP280;56967;43.538;-5.646;2023-03-03T08:37:06;102103.22;;;12.62
69704;BMP280;56967;43.538;-5.646;2023-03-03T08:39:32;102115.22;;;12.92
69704;BMP280;56967;43.538;-5.646;2023-03-03T08:41:57;102125.81;;;12.71
69704;BMP280;56967;43.538;-5.646;2023-03-03T08:44:23;102127.31;;;12.80
69704;BMP280;56967;43.538;-5.646;2023-03-03T08:46:48;102130.97;;;13.07
69704;BMP280;56967;43.538;-5.646;2023-03-03T08:49:14;102128.16;;;13.56
69704;BMP280;56967;43.538;-5.646;2023-03-03T08:51:40;102138.22;;;13.86
69704;BMP280;56967;43.538;-5.646;2023-03-03T08:54:06;102142.19;;;14.30
69704;BMP280;56967;43.538;-5.646;2023-03-03T08:56:31;102146.69;;;14.49
69704;BMP280;56967;43.538;-5.646;2023-03-03T08:58:57;102151.16;;;14.48
69704;BMP280;56967;43.538;-5.646;2023-03-03T09:01:22;102162.16;;;14.52
69704;BMP280;56967;43.538;-5.646;2023-03-03T09:03:48;102165.38;;;14.15
69704;BMP280;56967;43.538;-5.646;2023-03-03T09:06:16;102164.50;;;14.01
69704;BMP280;56967;43.538;-5.646;2023-03-03T09:08:45;102159.03;;;14.09
69704;BMP280;56967;43.538;-5.646;2023-03-03T09:11:12;102169.09;;;13.79
69704;BMP280;56967;43.538;-5.646;2023-03-03T09:13:37;102174.72;;;14.24
69704;BMP280;56967;43.538;-5.646;2023-03-03T09:16:12;102170.09;;;14.85
69704;BMP280;56967;43.538;-5.646;2023-03-03T09:18:38;102171.53;;;14.67
69704;BMP280;56967;43.538;-5.646;2023-03-03T09:21:36;102168.94;;;15.45
69704;BMP280;56967;43.538;-5.646;2023-03-03T09:24:03;102176.69;;;15.46
69704;BMP280;56967;43.538;-5.646;2023-03-03T09:26:51;102181.44;;;15.82
69704;BMP280;56967;43.538;-5.646;2023-03-03T09:29:28;102189.50;;;16.00
69704;BMP280;56967;43.538;-5.646;2023-03-03T09:31:55;102194.66;;;16.20
69704;BMP280;56967;43.538;-5.646;2023-03-03T09:37:12;102203.97;;;16.60
69704;BMP280;56967;43.538;-5.646;2023-03-03T09:39:39;102209.38;;;16.72
69704;BMP280;56967;43.538;-5.646;2023-03-03T09:42:11;102213.56;;;17.22
69704;BMP280;56967;43.538;-5.646;2023-03-03T09:47:38;102214.69;;;17.80
69704;BMP280;56967;43.538;-5.646;2023-03-03T09:50:29;102216.66;;;17.73
69704;BMP280;56967;43.538;-5.646;2023-03-03T09:53:18;102214.66;;;17.69
69704;BMP280;56967;43.538;-5.646;2023-03-03T09:56:01;102221.25;;;17.30
69704;BMP280;56967;43.538;-5.646;2023-03-03T09:58:41;102214.53;;;17.46
69704;BMP280;56967;43.538;-5.646;2023-03-03T10:01:34;102214.78;;;17.74
69704;BMP280;56967;43.538;-5.646;2023-03-03T10:06:52;102215.50;;;18.22
69704;BMP280;56967;43.538;-5.646;2023-03-03T10:12:19;102223.38;;;18.17
69704;BMP280;56967;43.538;-5.646;2023-03-03T10:17:48;102228.97;;;19.60
69704;BMP280;56967;43.538;-5.646;2023-03-03T10:22:55;102231.97;;;19.80
69704;BMP280;56967;43.538;-5.646;2023-03-03T10:25:41;102232.84;;;19.97
69704;BMP280;56967;43.538;-5.646;2023-03-03T10:28:25;102240.06;;;20.30
69704;BMP280;56967;43.538;-5.646;2023-03-03T10:36:33;102237.88;;;20.81
69704;BMP280;56967;43.538;-5.646;2023-03-03T10:42:33;102246.38;;;21.38
69704;BMP280;56967;43.538;-5.646;2023-03-03T10:53:29;102236.28;;;21.24
69704;BMP280;56967;43.538;-5.646;2023-03-03T10:59:14;102243.13;;;19.48
69704;BMP280;56967;43.538;-5.646;2023-03-03T11:04:54;102235.78;;;17.93
69704;BMP280;56967;43.538;-5.646;2023-03-03T11:07:41;102229.34;;;18.89
69704;BMP280;56967;43.538;-5.646;2023-03-03T11:13:18;102218.53;;;18.14
69704;BMP280;56967;43.538;-5.646;2023-03-03T11:16:05;102227.00;;;17.63
69704;BMP280;56967;43.538;-5.646;2023-03-03T11:18:51;102221.38;;;17.35
69704;BMP280;56967;43.538;-5.646;2023-03-03T11:33:19;102194.13;;;14.90
69704;BMP280;56967;43.538;-5.646;2023-03-03T11:36:08;102192.09;;;14.85
69704;BMP280;56967;43.538;-5.646;2023-03-03T11:41:48;102186.13;;;14.18
69704;BMP280;56967;43.538;-5.646;2023-03-03T11:44:31;102177.72;;;14.01
69704;BMP280;56967;43.538;-5.646;2023-03-03T11:47:05;102189.97;;;14.15
69704;BMP280;56967;43.538;-5.646;2023-03-03T11:49:47;102183.75;;;13.82
69704;BMP280;56967;43.538;-5.646;2023-03-03T11:52:27;102173.19;;;13.75
69704;BMP280;56967;43.538;-5.646;2023-03-03T11:55:14;102175.22;;;13.86
69704;BMP280;56967;43.538;-5.646;2023-03-03T12:03:40;102166.06;;;13.41
69704;BMP280;56967;43.538;-5.646;2023-03-03T12:06:32;102157.84;;;13.58
69704;BMP280;56967;43.538;-5.646;2023-03-03T12:11:53;102166.56;;;13.52
69704;BMP280;56967;43.538;-5.646;2023-03-03T12:17:16;102154.13;;;13.45
69704;BMP280;56967;43.538;-5.646;2023-03-03T12:22:32;102142.53;;;13.40
69704;BMP280;56967;43.538;-5.646;2023-03-03T12:30:42;102125.13;;;13.52
69704;BMP280;56967;43.538;-5.646;2023-03-03T12:44:35;102117.19;;;13.18
69704;BMP280;56967;43.538;-5.646;2023-03-03T12:50:19;102101.72;;;13.56
69704;BMP280;56967;43.538;-5.646;2023-03-03T13:06:31;102081.72;;;13.94
69704;BMP280;56967;43.538;-5.646;2023-03-03T13:09:00;102078.22;;;13.74
69704;BMP280;56967;43.538;-5.646;2023-03-03T13:14:09;102076.75;;;13.52
69704;BMP280;56967;43.538;-5.646;2023-03-03T13:17:00;102073.72;;;13.61
69704;BMP280;56967;43.538;-5.646;2023-03-03T13:19:43;102067.59;;;13.07
69704;BMP280;56967;43.538;-5.646;2023-03-03T13:25:00;102062.94;;;13.15
69704;BMP280;56967;43.538;-5.646;2023-03-03T13:27:34;102070.88;;;13.15
69704;BMP280;56967;43.538;-5.646;2023-03-03T13:30:19;102065.78;;;13.61
69704;BMP280;56967;43.538;-5.646;2023-03-03T13:32:56;102059.91;;;13.59
69704;BMP280;56967;43.538;-5.646;2023-03-03T13:35:37;102055.66;;;13.65
69704;BMP280;56967;43.538;-5.646;2023-03-03T13:38:05;102054.81;;;13.58
69704;BMP280;56967;43.538;-5.646;2023-03-03T13:40:44;102060.75;;;13.19
69704;BMP280;56967;43.538;-5.646;2023-03-03T13:45:55;102060.19;;;12.96
69704;BMP280;56967;43.538;-5.646;2023-03-03T13:57:24;102043.66;;;13.08
69704;BMP280;56967;43.538;-5.646;2023-03-03T14:11:05;102041.88;;;13.28
69704;BMP280;56967;43.538;-5.646;2023-03-03T14:19:16;102035.06;;;13.40
69704;BMP280;56967;43.538;-5.646;2023-03-03T14:24:23;102037.06;;;13.38
69704;BMP280;56967;43.538;-5.646;2023-03-03T14:26:58;102041.66;;;13.17
69704;BMP280;56967;43.538;-5.646;2023-03-03T14:31:53;102038.41;;;13.21
69704;BMP280;56967;43.538;-5.646;2023-03-03T14:36:50;102039.00;;;13.17
69704;BMP280;56967;43.538;-5.646;2023-03-03T14:39:35;102034.81;;;13.35
69704;BMP280;56967;43.538;-5.646;2023-03-03T14:42:30;102027.06;;;13.21
69704;BMP280;56967;43.538;-5.646;2023-03-03T14:44:59;102034.00;;;13.35
69704;BMP280;56967;43.538;-5.646;2023-03-03T14:47:27;102040.31;;;13.47
69704;BMP280;56967;43.538;-5.646;2023-03-03T14:49:55;102044.13;;;12.91
69704;BMP280;56967;43.538;-5.646;2023-03-03T14:52:27;102028.47;;;13.23
69704;BMP280;56967;43.538;-5.646;2023-03-03T14:54:59;102032.66;;;13.05
69704;BMP280;56967;43.538;-5.646;2023-03-03T15:03:03;102027.34;;;12.98
69704;BMP280;56967;43.538;-5.646;2023-03-03T15:05:31;102035.13;;;12.72
69704;BMP280;56967;43.538;-5.646;2023-03-03T15:10:36;102025.13;;;13.02
69704;BMP280;56967;43.538;-5.646;2023-03-03T15:13:29;102024.50;;;13.00
69704;BMP280;56967;43.538;-5.646;2023-03-03T15:18:24;102016.97;;;12.97
69704;BMP280;56967;43.538;-5.646;2023-03-03T15:43:36;102013.56;;;13.09
69704;BMP280;56967;43.538;-5.646;2023-03-03T15:46:14;102010.34;;;13.07
69704;BMP280;56967;43.538;-5.646;2023-03-03T15:54:24;102013.50;;;12.96
69704;BMP280;56967;43.538;-5.646;2023-03-03T15:56:56;102029.78;;;13.00
69704;BMP280;56967;43.538;-5.646;2023-03-03T16:08:10;101999.13;;;12.99
69704;BMP280;56967;43.538;-5.646;2023-03-03T16:13:53;101996.84;;;12.96
69704;BMP280;56967;43.538;-5.646;2023-03-03T16:19:37;101996.84;;;12.96
69704;BMP280;56967;43.538;-5.646;2023-03-03T16:33:45;102005.59;;;12.96
69704;BMP280;56967;43.538;-5.646;2023-03-03T16:39:03;101999.69;;;12.88
69704;BMP280;56967;43.538;-5.646;2023-03-03T16:41:46;101997.59;;;12.76
69704;BMP280;56967;43.538;-5.646;2023-03-03T16:47:27;102014.03;;;12.78
69704;BMP280;56967;43.538;-5.646;2023-03-03T16:53:21;101986.16;;;12.69
69704;BMP280;56967;43.538;-5.646;2023-03-03T17:01:10;101997.38;;;12.78
69704;BMP280;56967;43.538;-5.646;2023-03-03T17:03:54;101982.31;;;12.65
69704;BMP280;56967;43.538;-5.646;2023-03-03T17:09:16;101998.22;;;12.51
69704;BMP280;56967;43.538;-5.646;2023-03-03T17:20:48;101999.03;;;12.51
69704;BMP280;56967;43.538;-5.646;2023-03-03T17:40:04;101995.72;;;12.15
69704;BMP280;56967;43.538;-5.646;2023-03-03T17:43:05;101989.22;;;12.11
69704;BMP280;56967;43.538;-5.646;2023-03-03T17:45:38;101987.72;;;12.02
69704;BMP280;56967;43.538;-5.646;2023-03-03T17:48:16;101996.56;;;11.94
69704;BMP280;56967;43.538;-5.646;2023-03-03T18:27:28;101997.59;;;11.57
69704;BMP280;56967;43.538;-5.646;2023-03-03T18:37:50;102000.88;;;11.45
69704;BMP280;56967;43.538;-5.646;2023-03-03T18:40:29;101997.22;;;11.39
69704;BMP280;56967;43.538;-5.646;2023-03-03T18:42:55;101984.75;;;11.33
69704;BMP280;56967;43.538;-5.646;2023-03-03T18:50:35;101982.03;;;11.27
69704;BMP280;56967;43.538;-5.646;2023-03-03T18:53:20;101981.34;;;11.18
69704;BMP280;56967;43.538;-5.646;2023-03-03T18:55:54;101975.78;;;11.13
69704;BMP280;56967;43.538;-5.646;2023-03-03T18:58:35;101971.19;;;11.15
69704;BMP280;56967;43.538;-5.646;2023-03-03T19:09:18;101961.31;;;11.02
69704;BMP280;56967;43.538;-5.646;2023-03-03T19:11:51;101953.19;;;11.04
69704;BMP280;56967;43.538;-5.646;2023-03-03T19:20:10;101934.72;;;10.97
69704;BMP280;56967;43.538;-5.646;2023-03-03T19:22:48;101932.66;;;10.93
69704;BMP280;56967;43.538;-5.646;2023-03-03T19:25:24;101925.66;;;10.85
69704;BMP280;56967;43.538;-5.646;2023-03-03T19:31:04;101927.31;;;10.86
69704;BMP280;56967;43.538;-5.646;2023-03-03T19:34:26;101931.19;;;10.90
69704;BMP280;56967;43.538;-5.646;2023-03-03T19:36:52;101927.00;;;10.96
69704;BMP280;56967;43.538;-5.646;2023-03-03T19:47:26;101921.19;;;10.71
69704;BMP280;56967;43.538;-5.646;2023-03-03T19:58:43;101922.75;;;10.80
69704;BMP280;56967;43.538;-5.646;2023-03-03T20:01:13;101928.56;;;10.90
69704;BMP280;56967;43.538;-5.646;2023-03-03T20:06:33;101940.56;;;10.78
69704;BMP280;56967;43.538;-5.646;2023-03-03T20:09:21;101945.16;;;10.91
69704;BMP280;56967;43.538;-5.646;2023-03-03T20:12:00;101948.06;;;10.81
69704;BMP280;56967;43.538;-5.646;2023-03-03T20:14:42;101946.34;;;10.74